Time;durP1;ratioP1;P1;durP2;ratioP2;P2;SDS_P1;SDS_P2;PMS_P1;PMS_P2;Temp;Humidity;BMP_temperature;BMP_pressure;BME280_temperature;BME280_humidity;BME280_pressure;Samples;Min_cycle;Max_cycle;Signal;HPM_P1;HPM_P2
2024/02/23 00:01:11;;;;;;;0.35;0.35;;;7.00;99.90;;;;;;4971961;28;20054;-65
2024/02/23 00:03:39;;;;;;;0.35;0.35;;;7.00;99.90;;;;;;4968605;28;20046;-65
2024/02/23 00:06:05;;;;;;;1.35;0.30;;;7.10;99.90;;;;;;4969589;28;20050;-65
2024/02/23 00:08:32;;;;;;;0.55;0.30;;;7.00;99.90;;;;;;4974595;28;20142;-65
2024/02/23 00:10:59;;;;;;;1.85;0.40;;;7.00;99.90;;;;;;4956140;28;20055;-65
2024/02/23 00:13:26;;;;;;;1.35;0.35;;;6.90;99.90;;;;;;4971990;28;20050;-65
2024/02/23 00:15:53;;;;;;;3.00;0.40;;;6.90;99.90;;;;;;4969910;28;20499;-65
2024/02/23 00:18:20;;;;;;;2.63;0.50;;;6.80;99.90;;;;;;4969127;28;20056;-65
2024/02/23 00:20:47;;;;;;;0.65;0.40;;;6.90;99.90;;;;;;4953403;28;20062;-65
2024/02/23 00:23:14;;;;;;;1.20;0.50;;;6.80;99.90;;;;;;4952546;28;20420;-65
2024/02/23 00:25:41;;;;;;;2.92;0.60;;;6.70;99.90;;;;;;4970141;28;20109;-65
2024/02/23 00:28:08;;;;;;;1.17;0.40;;;6.70;99.90;;;;;;4971056;28;20138;-65
2024/02/23 00:30:35;;;;;;;1.88;0.60;;;6.80;99.90;;;;;;4968829;28;20043;-65
2024/02/23 00:33:02;;;;;;;1.95;0.50;;;6.80;99.90;;;;;;4970063;28;20047;-65
2024/02/23 00:35:29;;;;;;;1.85;0.50;;;6.80;99.90;;;;;;4971194;28;20077;-65
2024/02/23 00:37:56;;;;;;;1.55;0.77;;;6.80;99.90;;;;;;4973379;28;20051;-66
2024/02/23 00:40:23;;;;;;;0.52;0.50;;;6.80;99.90;;;;;;4967597;28;20101;-65
2024/02/23 00:42:50;;;;;;;1.42;0.50;;;6.80;99.90;;;;;;4971697;28;20054;-65
2024/02/23 00:45:17;;;;;;;0.50;0.40;;;6.80;99.90;;;;;;4969344;28;20534;-65
2024/02/23 00:47:45;;;;;;;0.90;0.47;;;6.80;99.90;;;;;;4964514;28;20058;-65
2024/02/23 00:50:12;;;;;;;4.55;0.90;;;6.80;99.90;;;;;;4972300;28;20054;-65
2024/02/23 00:52:40;;;;;;;3.50;0.50;;;6.80;99.90;;;;;;4974882;28;20069;-65
2024/02/23 00:55:08;;;;;;;1.90;0.60;;;6.70;99.90;;;;;;4968057;28;20051;-65
2024/02/23 00:57:35;;;;;;;2.78;0.60;;;6.60;99.90;;;;;;4970062;28;20054;-65
2024/02/23 01:00:05;;;;;;;1.23;0.50;;;6.60;99.90;;;;;;4973007;28;20422;-65
2024/02/23 01:02:35;;;;;;;1.60;0.50;;;6.60;99.90;;;;;;4951314;28;20354;-65
2024/02/23 01:05:02;;;;;;;2.33;0.60;;;6.50;99.90;;;;;;4971239;28;20086;-65
2024/02/23 01:07:29;;;;;;;3.17;0.50;;;6.60;99.90;;;;;;4968746;28;20062;-65
2024/02/23 01:09:59;;;;;;;3.47;1.02;;;6.50;99.90;;;;;;4969392;28;20133;-65
2024/02/23 01:12:26;;;;;;;1.90;0.50;;;6.40;99.90;;;;;;4967378;28;20083;-65
2024/02/23 01:14:53;;;;;;;2.25;0.50;;;6.50;99.90;;;;;;4968611;28;20051;-65
2024/02/23 01:17:20;;;;;;;3.65;0.70;;;6.50;99.90;;;;;;4967739;28;20117;-64
2024/02/23 01:19:46;;;;;;;3.90;1.10;;;6.50;99.90;;;;;;4970561;28;20146;-65
2024/02/23 01:22:14;;;;;;;1.48;0.50;;;6.50;99.90;;;;;;4965480;28;20051;-65
2024/02/23 01:24:41;;;;;;;1.30;0.50;;;6.60;99.90;;;;;;4964344;28;20055;-65
2024/02/23 01:27:08;;;;;;;3.05;0.50;;;6.50;99.90;;;;;;4966767;28;20132;-65
2024/02/23 01:29:35;;;;;;;3.60;1.08;;;6.60;99.90;;;;;;4969899;28;20050;-65
2024/02/23 01:32:01;;;;;;;1.42;0.43;;;6.60;99.90;;;;;;4969141;28;20715;-64
2024/02/23 01:34:28;;;;;;;1.73;0.60;;;6.60;99.90;;;;;;4966027;28;20130;-65
2024/02/23 01:36:55;;;;;;;4.47;0.50;;;6.60;99.90;;;;;;4966514;28;20075;-65
2024/02/23 01:39:22;;;;;;;1.50;0.65;;;6.60;99.90;;;;;;4967413;28;20050;-64
2024/02/23 01:41:49;;;;;;;2.72;0.80;;;6.50;99.90;;;;;;4967064;28;20447;-65
2024/02/23 01:44:17;;;;;;;1.27;0.50;;;6.40;99.90;;;;;;4967689;28;20046;-66
2024/02/23 01:46:44;;;;;;;0.80;0.55;;;6.40;99.90;;;;;;4967352;28;20057;-65
2024/02/23 01:49:12;;;;;;;3.03;0.80;;;6.40;99.90;;;;;;4969527;28;20519;-65
2024/02/23 01:51:39;;;;;;;3.85;0.75;;;6.40;99.90;;;;;;4971585;28;20142;-65
2024/02/23 01:54:07;;;;;;;3.75;0.73;;;6.40;99.90;;;;;;4970799;28;20519;-66
2024/02/23 01:56:36;;;;;;;2.63;0.60;;;6.30;99.90;;;;;;4972525;28;20039;-65
2024/02/23 01:59:04;;;;;;;3.83;0.60;;;6.30;99.90;;;;;;4975426;28;20051;-65
2024/02/23 02:01:31;;;;;;;4.63;0.82;;;6.30;99.90;;;;;;4978436;28;20062;-65
2024/02/23 02:04:01;;;;;;;3.33;0.60;;;6.30;99.90;;;;;;4975149;28;20066;-65
2024/02/23 02:06:28;;;;;;;2.25;0.82;;;6.40;99.90;;;;;;4972985;28;20046;-64
2024/02/23 02:08:55;;;;;;;1.30;0.50;;;6.40;99.90;;;;;;4973344;28;20082;-65
2024/02/23 02:11:21;;;;;;;4.03;0.70;;;6.50;99.90;;;;;;4972499;28;20464;-64
2024/02/23 02:13:48;;;;;;;3.47;0.73;;;6.50;99.90;;;;;;4972658;28;20047;-65
2024/02/23 02:16:15;;;;;;;4.85;1.00;;;6.50;99.90;;;;;;4968858;28;20046;-65
2024/02/23 02:18:44;;;;;;;4.93;1.95;;;6.50;99.90;;;;;;4972283;28;20043;-65
2024/02/23 02:21:11;;;;;;;1.15;0.70;;;6.50;99.90;;;;;;4970716;28;20050;-65
2024/02/23 02:23:38;;;;;;;2.78;1.45;;;6.60;99.90;;;;;;4972149;28;20443;-65
2024/02/23 02:26:05;;;;;;;1.15;0.50;;;6.60;99.90;;;;;;4970502;28;20058;-65
2024/02/23 02:28:32;;;;;;;1.88;0.60;;;6.70;99.90;;;;;;4970724;28;20039;-65
2024/02/23 02:30:59;;;;;;;5.13;0.80;;;6.70;99.90;;;;;;4973430;28;20078;-65
2024/02/23 02:33:25;;;;;;;1.50;0.50;;;6.70;99.90;;;;;;4973071;28;20051;-65
2024/02/23 02:35:52;;;;;;;1.63;0.60;;;6.70;99.90;;;;;;4968492;28;20050;-65
2024/02/23 02:38:19;;;;;;;1.58;0.60;;;6.70;99.90;;;;;;4969044;28;20073;-65
2024/02/23 02:40:46;;;;;;;2.20;0.90;;;6.60;99.90;;;;;;4969188;28;20059;-65
2024/02/23 02:43:12;;;;;;;1.83;0.70;;;6.60;99.90;;;;;;4972440;28;20051;-65
2024/02/23 02:45:39;;;;;;;2.22;0.70;;;6.60;99.90;;;;;;4969079;28;20106;-65
2024/02/23 02:48:06;;;;;;;2.38;0.68;;;6.60;99.90;;;;;;4970416;28;20396;-65
2024/02/23 02:50:33;;;;;;;3.55;1.67;;;6.50;99.90;;;;;;4973128;28;20463;-64
2024/02/23 02:53:00;;;;;;;2.17;0.52;;;6.40;99.90;;;;;;4971373;28;20046;-65
2024/02/23 02:55:27;;;;;;;6.75;2.10;;;6.40;99.90;;;;;;4973009;28;20078;-64
2024/02/23 02:57:53;;;;;;;1.30;0.57;;;6.50;99.90;;;;;;4971655;28;20134;-64
2024/02/23 03:00:20;;;;;;;3.70;0.73;;;6.60;99.90;;;;;;4970365;28;20051;-65
2024/02/23 03:02:47;;;;;;;1.67;0.60;;;6.60;99.90;;;;;;4969200;28;20051;-64
2024/02/23 03:05:14;;;;;;;3.58;0.93;;;6.70;99.90;;;;;;4972579;28;20621;-64
2024/02/23 03:07:41;;;;;;;2.65;0.43;;;6.70;99.90;;;;;;4970773;28;20138;-64
2024/02/23 03:10:07;;;;;;;2.72;0.50;;;6.70;99.90;;;;;;4970010;28;20047;-64
2024/02/23 03:12:34;;;;;;;2.10;0.70;;;6.70;99.90;;;;;;4973072;28;20047;-65
2024/02/23 03:15:02;;;;;;;2.30;0.68;;;6.60;99.90;;;;;;4970756;28;20157;-65
2024/02/23 03:17:29;;;;;;;6.68;1.85;;;6.60;99.90;;;;;;4953594;28;20042;-64
2024/02/23 03:19:57;;;;;;;3.25;0.80;;;6.50;99.90;;;;;;4975164;28;20137;-64
2024/02/23 03:22:24;;;;;;;2.80;1.10;;;6.50;99.90;;;;;;4969624;28;20051;-65
2024/02/23 03:24:51;;;;;;;3.95;0.88;;;6.40;99.90;;;;;;4973931;28;20059;-64
2024/02/23 03:27:19;;;;;;;3.22;0.95;;;6.40;99.90;;;;;;4971172;28;20110;-65
2024/02/23 03:29:46;;;;;;;2.35;0.85;;;6.30;99.90;;;;;;4973540;28;20224;-64
2024/02/23 03:32:12;;;;;;;1.45;0.60;;;6.30;99.90;;;;;;4958597;28;20105;-64
2024/02/23 03:34:39;;;;;;;3.05;0.70;;;6.30;99.90;;;;;;4973632;28;20496;-65
2024/02/23 03:37:06;;;;;;;1.75;0.60;;;6.20;99.90;;;;;;4969762;28;20114;-64
2024/02/23 03:39:34;;;;;;;2.20;1.15;;;6.30;99.90;;;;;;4969886;28;20072;-65
2024/02/23 03:42:00;;;;;;;2.58;0.80;;;6.20;99.90;;;;;;4970075;28;20047;-65
2024/02/23 03:44:27;;;;;;;3.83;0.77;;;6.20;99.90;;;;;;4972696;28;20050;-64
2024/02/23 03:46:54;;;;;;;3.60;0.93;;;6.10;99.90;;;;;;4974431;28;20066;-64
2024/02/23 03:49:21;;;;;;;2.97;0.65;;;6.10;99.90;;;;;;4967895;28;20057;-64
2024/02/23 03:51:48;;;;;;;2.80;1.05;;;6.00;99.90;;;;;;4971970;28;20050;-64
2024/02/23 03:54:14;;;;;;;4.22;0.85;;;5.90;99.90;;;;;;4967157;28;20554;-64
2024/02/23 03:56:41;;;;;;;5.43;1.08;;;5.70;99.90;;;;;;4968629;28;20055;-64
2024/02/23 03:59:09;;;;;;;3.53;0.95;;;5.60;99.90;;;;;;4951966;28;20100;-64
2024/02/23 04:01:39;;;;;;;7.30;1.20;;;5.70;99.90;;;;;;4967444;28;20047;-65
2024/02/23 04:04:07;;;;;;;8.68;1.23;;;5.70;99.90;;;;;;4967389;28;20047;-64
2024/02/23 04:06:34;;;;;;;5.50;0.90;;;5.80;99.90;;;;;;4968058;28;20254;-64
2024/02/23 04:09:04;;;;;;;6.72;0.98;;;5.90;99.90;;;;;;4969072;28;20353;-65
2024/02/23 04:11:32;;;;;;;4.75;1.10;;;5.90;99.90;;;;;;4969207;28;20121;-64
2024/02/23 04:14:00;;;;;;;5.20;1.00;;;5.90;99.90;;;;;;4969811;28;20050;-65
2024/02/23 04:16:27;;;;;;;2.40;0.80;;;5.70;99.90;;;;;;4971983;28;20419;-64
2024/02/23 04:18:54;;;;;;;7.40;1.00;;;5.70;99.90;;;;;;4967964;28;20047;-64
2024/02/23 04:21:21;;;;;;;5.28;0.93;;;5.60;99.90;;;;;;4968149;28;20057;-65
2024/02/23 04:23:48;;;;;;;3.97;0.93;;;5.60;99.90;;;;;;4967554;28;20148;-64
2024/02/23 04:26:14;;;;;;;3.90;0.90;;;5.60;99.90;;;;;;4969158;28;20470;-64
2024/02/23 04:28:41;;;;;;;4.97;0.85;;;5.60;99.90;;;;;;4956214;28;20153;-65
2024/02/23 04:31:09;;;;;;;2.65;0.82;;;5.60;99.90;;;;;;4972089;28;20054;-64
2024/02/23 04:33:37;;;;;;;4.88;1.00;;;5.60;99.90;;;;;;4971222;28;20043;-65
2024/02/23 04:36:05;;;;;;;5.80;1.00;;;5.60;99.90;;;;;;4969271;28;20078;-65
2024/02/23 04:38:31;;;;;;;4.85;1.10;;;5.50;99.90;;;;;;4970489;28;20566;-65
2024/02/23 04:41:02;;;;;;;4.00;0.77;;;5.50;99.90;;;;;;4968256;28;20133;-64
2024/02/23 04:43:28;;;;;;;;;;;5.60;99.90;;;;;;4969829;28;20492;-65
2024/02/23 04:45:55;;;;;;;4.03;1.20;;;5.60;99.90;;;;;;4967079;28;19961;-65
2024/02/23 04:48:22;;;;;;;2.92;0.90;;;5.60;99.90;;;;;;4967582;28;20085;-65
2024/02/23 04:50:49;;;;;;;3.00;0.90;;;5.60;99.90;;;;;;4968301;28;20138;-65
2024/02/23 04:53:15;;;;;;;1.90;0.70;;;5.60;99.90;;;;;;4969474;28;20680;-65
2024/02/23 04:55:42;;;;;;;7.10;0.98;;;5.60;99.90;;;;;;4968570;28;20553;-64
2024/02/23 04:58:09;;;;;;;6.03;1.40;;;5.60;99.90;;;;;;4968730;28;20050;-65
2024/02/23 05:00:45;;;;;;;5.22;1.10;;;5.50;99.90;;;;;;4968670;28;20130;-65
2024/02/23 05:03:12;;;;;;;7.03;1.30;;;5.40;99.90;;;;;;4966194;28;20062;-65
2024/02/23 05:05:39;;;;;;;4.20;1.13;;;5.40;99.90;;;;;;4965118;28;20051;-65
2024/02/23 05:08:06;;;;;;;5.82;1.00;;;5.40;99.90;;;;;;4968999;28;20057;-65
2024/02/23 05:10:33;;;;;;;3.88;1.00;;;5.30;99.90;;;;;;4973119;28;20082;-64
2024/02/23 05:13:00;;;;;;;7.93;1.20;;;5.30;99.90;;;;;;4969234;28;20058;-65
2024/02/23 05:15:26;;;;;;;6.68;1.27;;;5.40;99.90;;;;;;4970283;28;20145;-64
2024/02/23 05:17:53;;;;;;;2.65;1.00;;;5.50;99.90;;;;;;4969882;28;20101;-65
2024/02/23 05:20:20;;;;;;;5.20;1.02;;;5.60;99.90;;;;;;4968209;28;20051;-65
2024/02/23 05:22:47;;;;;;;3.25;0.73;;;5.70;99.90;;;;;;4970882;28;20058;-65
2024/02/23 05:25:14;;;;;;;3.78;0.60;;;5.80;99.90;;;;;;4967234;28;20149;-65
2024/02/23 05:27:42;;;;;;;6.82;1.38;;;5.70;99.90;;;;;;4973963;28;20601;-65
2024/02/23 05:30:09;;;;;;;6.80;1.10;;;5.80;99.90;;;;;;4972724;28;20104;-64
2024/02/23 05:32:37;;;;;;;3.20;1.08;;;5.80;99.90;;;;;;4974351;28;20483;-64
2024/02/23 05:35:06;;;;;;;4.13;0.70;;;5.90;99.90;;;;;;4975723;28;20118;-64
2024/02/23 05:37:34;;;;;;;4.45;1.48;;;5.90;99.90;;;;;;4975343;28;20047;-64
2024/02/23 05:40:04;;;;;;;5.18;1.58;;;5.90;99.90;;;;;;4980599;28;20050;-65
2024/02/23 05:42:31;;;;;;;;;;;5.90;99.90;;;;;;4974889;28;20051;-64
2024/02/23 05:44:58;;;;;;;8.25;2.03;;;6.00;99.90;;;;;;4974455;28;19930;-64
2024/02/23 05:47:25;;;;;;;3.78;0.80;;;6.00;99.90;;;;;;4972197;28;20050;-65
2024/02/23 05:49:52;;;;;;;4.82;0.80;;;6.10;99.90;;;;;;4973199;28;20055;-65
2024/02/23 05:52:19;;;;;;;10.02;1.35;;;6.10;99.90;;;;;;4976248;28;20506;-65
2024/02/23 05:54:45;;;;;;;5.82;1.15;;;6.10;99.90;;;;;;4973549;28;20043;-65
2024/02/23 05:57:15;;;;;;;6.18;1.05;;;6.10;99.90;;;;;;4973378;28;20043;-65
2024/02/23 05:59:41;;;;;;;6.38;1.67;;;6.10;99.90;;;;;;4975659;28;20088;-64
2024/02/23 06:02:08;;;;;;;3.70;1.15;;;6.10;99.90;;;;;;4973459;28;20451;-65
2024/02/23 06:04:35;;;;;;;8.20;1.55;;;6.00;99.90;;;;;;4973134;28;20043;-64
2024/02/23 06:07:02;;;;;;;3.67;1.25;;;5.90;99.90;;;;;;4975599;28;20705;-65
2024/02/23 06:09:29;;;;;;;9.88;1.45;;;5.90;99.90;;;;;;4970952;28;20043;-65
2024/02/23 06:11:56;;;;;;;5.72;1.30;;;5.80;99.90;;;;;;4972723;28;20102;-65
2024/02/23 06:14:23;;;;;;;7.63;1.63;;;5.80;99.90;;;;;;4978003;28;20368;-64
2024/02/23 06:16:50;;;;;;;6.65;1.08;;;5.70;99.90;;;;;;4974265;28;20053;-64
2024/02/23 06:19:17;;;;;;;7.95;1.52;;;5.60;99.90;;;;;;4968218;28;20503;-65
2024/02/23 06:21:48;;;;;;;6.32;1.60;;;5.60;99.90;;;;;;4969713;28;20058;-65
2024/02/23 06:24:16;;;;;;;6.85;1.35;;;5.50;99.90;;;;;;4972265;28;20051;-64
2024/02/23 06:26:45;;;;;;;4.03;1.00;;;5.60;99.90;;;;;;4977033;28;20632;-64
2024/02/23 06:29:13;;;;;;;7.85;1.50;;;5.60;99.90;;;;;;4970914;28;20062;-65
2024/02/23 06:31:41;;;;;;;2.92;0.95;;;5.60;99.90;;;;;;4966939;28;20042;-64
2024/02/23 06:34:08;;;;;;;5.57;1.35;;;5.60;99.90;;;;;;4966286;28;20074;-65
2024/02/23 06:36:35;;;;;;;8.20;1.30;;;5.50;99.90;;;;;;4966570;28;20039;-64
2024/02/23 06:39:02;;;;;;;5.38;1.23;;;5.50;99.90;;;;;;4969772;28;20059;-65
2024/02/23 06:41:29;;;;;;;7.50;1.48;;;5.40;99.90;;;;;;4970442;28;20043;-65
2024/02/23 06:43:56;;;;;;;11.20;1.83;;;5.40;99.90;;;;;;4970548;28;20210;-64
2024/02/23 06:46:23;;;;;;;6.28;1.10;;;5.40;99.90;;;;;;4965466;28;20078;-65
2024/02/23 06:48:55;;;;;;;9.73;1.23;;;5.40;99.90;;;;;;4966371;28;20051;-64
2024/02/23 06:51:22;;;;;;;6.93;1.60;;;5.30;99.90;;;;;;4972678;28;20061;-64
2024/02/23 06:53:49;;;;;;;5.00;1.02;;;5.20;99.90;;;;;;4972041;28;20059;-64
2024/02/23 06:56:16;;;;;;;3.00;1.00;;;5.20;99.90;;;;;;4972534;28;20380;-64
2024/02/23 06:58:42;;;;;;;3.20;1.02;;;5.20;99.90;;;;;;4974305;28;20664;-66
2024/02/23 07:01:12;;;;;;;6.18;1.67;;;5.20;99.90;;;;;;4971703;28;20138;-66
2024/02/23 07:03:41;;;;;;;10.57;1.30;;;5.20;99.90;;;;;;4970057;28;20050;-66
2024/02/23 07:06:10;;;;;;;4.82;0.90;;;5.20;99.90;;;;;;4976225;28;20734;-65
2024/02/23 07:08:37;;;;;;;6.00;1.33;;;5.20;99.90;;;;;;4973131;28;20130;-67
2024/02/23 07:11:03;;;;;;;10.30;2.03;;;5.10;99.90;;;;;;4975570;28;20046;-66
2024/02/23 07:13:30;;;;;;;7.97;1.60;;;5.10;99.90;;;;;;4971565;28;20523;-64
2024/02/23 07:15:58;;;;;;;8.02;1.67;;;5.10;99.90;;;;;;4962590;28;20484;-67
2024/02/23 07:18:25;;;;;;;5.88;1.40;;;5.10;99.90;;;;;;4966177;28;20047;-63
2024/02/23 07:20:51;;;;;;;10.38;1.42;;;5.10;99.90;;;;;;4963639;28;20515;-65
2024/02/23 07:23:18;;;;;;;5.53;1.27;;;5.10;99.90;;;;;;4962448;28;20073;-66
2024/02/23 07:25:45;;;;;;;6.97;1.17;;;5.10;99.90;;;;;;4964585;28;20054;-66
2024/02/23 07:28:11;;;;;;;6.35;1.42;;;5.10;99.90;;;;;;4964883;28;20450;-65
2024/02/23 07:30:38;;;;;;;7.68;1.20;;;5.10;99.90;;;;;;4964539;28;20130;-65
2024/02/23 07:33:05;;;;;;;7.22;1.63;;;5.10;99.90;;;;;;4965231;28;20140;-65
2024/02/23 07:35:32;;;;;;;7.80;1.70;;;5.10;99.90;;;;;;4965468;28;20105;-65
2024/02/23 07:37:59;;;;;;;9.43;1.20;;;5.10;99.90;;;;;;4965404;28;20547;-65
2024/02/23 07:40:26;;;;;;;4.13;0.90;;;5.20;99.90;;;;;;4964001;28;20050;-66
2024/02/23 07:42:53;;;;;;;12.05;1.67;;;5.20;99.90;;;;;;4962808;28;20133;-66
2024/02/23 07:45:19;;;;;;;7.15;1.45;;;5.20;99.90;;;;;;4963511;28;20058;-65
2024/02/23 07:47:46;;;;;;;9.35;2.35;;;5.30;99.90;;;;;;4971115;28;20118;-65
2024/02/23 07:50:13;;;;;;;6.38;1.17;;;5.30;99.90;;;;;;4969776;28;20078;-66
2024/02/23 07:52:40;;;;;;;6.43;1.30;;;5.30;99.90;;;;;;4967405;28;20039;-66
2024/02/23 07:55:08;;;;;;;5.95;1.20;;;5.30;99.90;;;;;;4963199;28;20129;-65
2024/02/23 07:57:34;;;;;;;10.73;1.60;;;5.40;99.90;;;;;;4962257;28;20106;-66
2024/02/23 08:00:01;;;;;;;5.63;2.22;;;5.40;99.90;;;;;;4962255;28;20046;-66
2024/02/23 08:02:28;;;;;;;11.63;2.40;;;5.40;99.90;;;;;;4962390;28;20053;-66
2024/02/23 08:04:55;;;;;;;9.48;1.60;;;5.40;99.90;;;;;;4963731;28;20050;-65
2024/02/23 08:07:22;;;;;;;12.02;2.15;;;5.50;99.90;;;;;;4960651;28;20743;-66
2024/02/23 08:09:49;;;;;;;11.52;1.85;;;5.50;99.90;;;;;;4968478;28;20059;-66
2024/02/23 08:12:16;;;;;;;7.20;1.33;;;5.60;99.90;;;;;;4968961;28;20038;-66
2024/02/23 08:14:45;;;;;;;5.25;1.33;;;5.70;99.90;;;;;;4972776;28;20572;-65
2024/02/23 08:17:12;;;;;;;10.15;1.58;;;5.80;99.90;;;;;;4969754;28;20121;-66
2024/02/23 08:19:39;;;;;;;8.10;1.70;;;5.80;99.90;;;;;;4966400;28;20047;-65
2024/02/23 08:22:06;;;;;;;9.52;2.78;;;5.90;99.90;;;;;;4970601;28;20051;-65
2024/02/23 08:24:32;;;;;;;6.43;1.30;;;6.00;99.90;;;;;;4969384;28;20055;-66
2024/02/23 08:26:59;;;;;;;8.27;1.83;;;6.00;99.90;;;;;;4967784;28;20566;-65
2024/02/23 08:29:26;;;;;;;6.05;1.30;;;6.10;99.90;;;;;;4969666;28;20388;-66
2024/02/23 08:31:54;;;;;;;6.07;1.30;;;6.10;99.90;;;;;;4968126;28;20043;-66
2024/02/23 08:34:20;;;;;;;8.52;1.70;;;6.20;99.90;;;;;;4967642;28;20050;-66
2024/02/23 08:36:47;;;;;;;6.72;1.20;;;6.30;99.90;;;;;;4967364;28;20075;-65
2024/02/23 08:39:14;;;;;;;11.00;1.23;;;6.30;99.90;;;;;;4968116;28;20214;-66
2024/02/23 08:41:41;;;;;;;5.60;1.60;;;6.40;99.90;;;;;;4965440;28;20648;-66
2024/02/23 08:44:07;;;;;;;9.73;1.35;;;6.40;99.90;;;;;;4961550;28;20062;-65
2024/02/23 08:46:34;;;;;;;10.43;1.40;;;6.40;99.90;;;;;;4960246;28;20054;-64
2024/02/23 08:49:01;;;;;;;5.18;1.70;;;6.50;99.90;;;;;;4961973;28;20055;-65
2024/02/23 08:51:28;;;;;;;7.22;1.67;;;6.50;99.90;;;;;;4968705;28;20043;-66
2024/02/23 08:53:56;;;;;;;5.45;1.35;;;6.60;99.90;;;;;;4967957;28;20082;-66
2024/02/23 08:56:26;;;;;;;10.10;1.65;;;6.70;99.90;;;;;;4961742;28;20050;-65
2024/02/23 08:58:53;;;;;;;6.53;1.70;;;6.70;99.90;;;;;;4961837;28;20050;-65
2024/02/23 09:01:20;;;;;;;3.13;1.20;;;6.70;99.90;;;;;;4961820;28;20743;-65
2024/02/23 09:03:47;;;;;;;5.47;1.17;;;6.80;99.90;;;;;;4961066;28;20145;-66
2024/02/23 09:06:14;;;;;;;5.07;1.73;;;6.80;99.90;;;;;;4966714;28;20047;-66
2024/02/23 09:08:41;;;;;;;6.60;1.63;;;6.80;99.90;;;;;;4970936;28;20054;-66
2024/02/23 09:11:08;;;;;;;8.98;1.70;;;6.90;99.90;;;;;;4961995;28;20061;-66
2024/02/23 09:13:35;;;;;;;10.45;1.58;;;6.90;99.90;;;;;;4961830;28;20062;-66
2024/02/23 09:16:02;;;;;;;9.40;1.80;;;7.00;99.90;;;;;;4967982;28;20663;-66
2024/02/23 09:18:30;;;;;;;4.95;1.27;;;7.00;99.90;;;;;;4974250;28;20849;-66
2024/02/23 09:20:56;;;;;;;5.43;1.63;;;7.00;99.90;;;;;;4966970;28;20054;-66
2024/02/23 09:23:23;;;;;;;11.25;2.03;;;7.10;99.90;;;;;;4967421;28;20513;-66
2024/02/23 09:25:50;;;;;;;3.20;1.25;;;7.10;99.90;;;;;;4969794;28;20058;-67
2024/02/23 09:28:17;;;;;;;5.72;1.27;;;7.10;99.90;;;;;;4972123;28;20099;-65
2024/02/23 09:30:44;;;;;;;6.88;1.67;;;7.20;99.90;;;;;;4971055;28;20109;-65
2024/02/23 09:33:11;;;;;;;8.52;1.55;;;7.20;99.90;;;;;;4971089;28;20074;-66
2024/02/23 09:35:38;;;;;;;8.80;1.55;;;7.30;99.90;;;;;;4970273;28;20043;-66
2024/02/23 09:38:05;;;;;;;10.02;1.52;;;7.30;99.90;;;;;;4968058;28;20043;-66
2024/02/23 09:40:31;;;;;;;9.98;1.42;;;7.40;99.90;;;;;;4969799;28;20047;-67
2024/02/23 09:42:58;;;;;;;3.97;1.48;;;7.40;99.90;;;;;;4966831;28;20138;-67
2024/02/23 09:45:26;;;;;;;7.65;1.75;;;7.40;99.90;;;;;;4967786;28;20050;-67
2024/02/23 09:47:55;;;;;;;8.93;2.50;;;7.40;99.90;;;;;;4966866;28;20079;-67
2024/02/23 09:50:23;;;;;;;6.80;2.38;;;7.40;99.90;;;;;;4967335;28;20082;-67
2024/02/23 09:52:50;;;;;;;8.25;1.45;;;7.50;99.90;;;;;;4967833;28;20047;-67
2024/02/23 09:55:21;;;;;;;4.93;1.95;;;7.50;99.90;;;;;;4965588;28;20595;-67
2024/02/23 09:57:51;;;;;;;6.57;1.42;;;7.60;99.90;;;;;;4967095;28;20507;-67
2024/02/23 10:00:18;;;;;;;8.18;1.52;;;7.70;99.90;;;;;;4954689;28;20508;-67
2024/02/23 10:02:45;;;;;;;9.77;1.75;;;7.70;99.90;;;;;;4968090;28;20051;-67
2024/02/23 10:05:13;;;;;;;9.88;1.80;;;7.70;99.90;;;;;;4968079;28;20050;-67
2024/02/23 10:07:41;;;;;;;7.95;1.40;;;7.80;99.90;;;;;;4969529;28;20046;-67
2024/02/23 10:10:08;;;;;;;5.03;1.20;;;7.80;99.90;;;;;;4970020;28;20047;-67
2024/02/23 10:12:35;;;;;;;6.55;1.65;;;7.80;99.90;;;;;;4968821;28;20502;-67
2024/02/23 10:15:06;;;;;;;5.72;1.30;;;7.80;99.90;;;;;;4969755;28;20061;-67
2024/02/23 10:17:33;;;;;;;4.80;1.33;;;7.90;99.90;;;;;;4975551;28;20043;-67
2024/02/23 10:20:05;;;;;;;6.72;1.75;;;7.90;99.90;;;;;;4973101;28;20055;-67
2024/02/23 10:22:32;;;;;;;4.53;1.27;;;8.10;99.90;;;;;;4967822;28;20135;-67
2024/02/23 10:24:59;;;;;;;6.82;1.30;;;8.10;99.90;;;;;;4972135;28;20046;-67
2024/02/23 10:27:27;;;;;;;5.13;1.45;;;8.30;99.90;;;;;;4971870;28;20049;-67
2024/02/23 10:29:54;;;;;;;6.40;1.23;;;8.60;99.90;;;;;;4962236;23;20150;-59
2024/02/23 10:32:22;;;;;;;7.18;1.67;;;8.80;99.90;;;;;;4951190;28;20044;-60
2024/02/23 10:34:52;;;;;;;5.97;1.33;;;8.80;99.90;;;;;;4953854;28;20046;-59
2024/02/23 10:37:19;;;;;;;10.43;2.72;;;8.80;99.90;;;;;;4950718;28;20464;-60
2024/02/23 10:39:47;;;;;;;8.95;1.48;;;8.80;99.90;;;;;;4950951;28;20047;-59
2024/02/23 10:42:20;;;;;;;4.38;1.13;;;8.70;99.90;;;;;;4953703;28;20075;-61
2024/02/23 10:44:46;;;;;;;3.72;1.35;;;8.80;99.90;;;;;;4952996;28;20150;-59
2024/02/23 10:47:14;;;;;;;7.75;1.30;;;8.90;99.90;;;;;;4953783;28;20397;-61
2024/02/23 10:49:42;;;;;;;8.57;1.27;;;9.00;99.90;;;;;;4961920;28;20046;-61
2024/02/23 10:52:11;;;;;;;9.90;1.40;;;8.90;99.90;;;;;;4951164;28;20141;-61
2024/02/23 10:54:39;;;;;;;6.30;1.48;;;9.00;99.90;;;;;;4949442;28;20393;-60
2024/02/23 10:57:07;;;;;;;6.20;1.33;;;9.00;99.90;;;;;;4951540;28;20528;-61
2024/02/23 10:59:33;;;;;;;5.18;1.10;;;9.10;99.90;;;;;;4957217;28;20051;-61
2024/02/23 11:02:02;;;;;;;4.30;1.15;;;9.30;99.90;;;;;;4950461;28;20082;-61
2024/02/23 11:04:31;;;;;;;3.75;1.13;;;9.70;99.90;;;;;;4952754;28;20614;-61
2024/02/23 11:06:58;;;;;;;6.75;1.52;;;10.20;99.90;;;;;;4957954;28;20059;-61
2024/02/23 11:09:26;;;;;;;5.25;1.25;;;10.60;99.90;;;;;;4955784;28;20101;-61
2024/02/23 11:11:57;;;;;;;8.18;1.40;;;10.60;99.90;;;;;;4951952;28;20059;-61
2024/02/23 11:14:38;;;;;;;13.60;1.85;;;10.60;99.90;;;;;;4952716;28;20055;-60
2024/02/23 11:17:05;;;;;;;;;;;10.60;99.90;;;;;;4947052;28;20137;-60
2024/02/23 11:19:37;;;;;;;3.13;1.13;;;10.50;99.90;;;;;;4945631;28;19945;-61
2024/02/23 11:22:09;;;;;;;6.53;1.30;;;10.40;99.90;;;;;;4945068;28;20054;-61
2024/02/23 11:24:49;;;;;;;7.32;1.55;;;10.40;99.90;;;;;;4933935;28;20083;-61
2024/02/23 11:27:23;;;;;;;5.63;2.08;;;10.20;99.90;;;;;;4945578;28;20448;-61
2024/02/23 11:30:00;;;;;;;8.38;1.65;;;10.00;99.90;;;;;;4944984;28;20055;-60
2024/02/23 11:32:41;;;;;;;6.25;1.50;;;9.80;99.90;;;;;;4945647;28;20143;-61
2024/02/23 11:35:10;;;;;;;7.05;1.70;;;9.80;99.90;;;;;;4944884;28;20043;-60
2024/02/23 11:38:05;;;;;;;6.85;1.50;;;9.90;99.90;;;;;;4945141;28;20907;-61
2024/02/23 11:40:32;;;;;;;4.53;1.08;;;10.20;99.90;;;;;;4943831;28;20051;-60
2024/02/23 11:43:02;;;;;;;5.85;1.73;;;10.50;99.90;;;;;;4945134;28;20550;-61
2024/02/23 11:45:30;;;;;;;4.15;1.33;;;10.90;99.90;;;;;;4945421;28;20074;-60
2024/02/23 11:47:57;;;;;;;6.07;1.90;;;11.10;99.90;;;;;;4952970;28;20146;-61
2024/02/23 11:50:24;;;;;;;5.88;1.38;;;11.20;99.90;;;;;;4947355;28;20087;-60
2024/02/23 11:52:51;;;;;;;9.95;1.80;;;11.40;99.90;;;;;;4949698;28;20101;-59
2024/02/23 11:55:24;;;;;;;5.65;1.20;;;11.50;99.90;;;;;;4946850;28;20054;-61
2024/02/23 11:57:51;;;;;;;4.50;1.80;;;11.80;99.90;;;;;;4951112;28;20074;-61
2024/02/23 12:00:31;;;;;;;10.95;2.83;;;11.80;99.90;;;;;;4951688;28;20051;-59
2024/02/23 12:02:58;;;;;;;10.57;2.13;;;11.80;99.90;;;;;;4952797;28;20086;-60
2024/02/23 12:05:24;;;;;;;4.38;0.90;;;12.00;99.90;;;;;;4954895;28;20055;-61
2024/02/23 12:07:53;;;;;;;4.20;1.13;;;11.90;99.90;;;;;;4951539;28;20059;-61
2024/02/23 12:10:20;;;;;;;6.43;1.17;;;12.00;99.90;;;;;;4955108;28;20142;-61
2024/02/23 12:12:47;;;;;;;7.30;1.40;;;11.90;99.90;;;;;;4953697;28;20074;-61
2024/02/23 12:15:13;;;;;;;3.25;1.25;;;11.70;99.90;;;;;;4958029;28;20552;-59
2024/02/23 12:17:50;;;;;;;3.13;1.05;;;11.80;99.90;;;;;;4950175;28;20141;-59
2024/02/23 12:20:17;;;;;;;8.30;1.60;;;11.90;99.90;;;;;;4951414;28;20094;-60
2024/02/23 12:22:45;;;;;;;5.75;1.30;;;11.90;99.90;;;;;;4949908;28;20081;-60
2024/02/23 12:25:12;;;;;;;4.80;1.67;;;12.10;99.90;;;;;;4951953;28;20054;-63
2024/02/23 12:27:40;;;;;;;5.78;1.35;;;12.20;99.90;;;;;;4954607;28;20071;-63
2024/02/23 12:30:17;;;;;;;5.22;1.10;;;12.10;99.90;;;;;;4952959;28;20062;-62
2024/02/23 12:32:44;;;;;;;8.27;1.60;;;12.10;99.90;;;;;;4950998;28;20093;-62
2024/02/23 12:35:12;;;;;;;3.42;1.00;;;12.00;99.90;;;;;;4950359;28;20091;-62
2024/02/23 12:37:41;;;;;;;4.65;1.63;;;11.90;99.90;;;;;;4952210;28;20091;-63
2024/02/23 12:40:11;;;;;;;6.90;1.45;;;11.90;99.90;;;;;;4953598;28;20082;-63
2024/02/23 12:42:37;;;;;;;6.10;2.47;;;11.90;99.90;;;;;;4959915;28;20546;-63
2024/02/23 12:45:04;;;;;;;11.15;2.00;;;12.00;99.90;;;;;;4954628;28;20050;-63
2024/02/23 12:47:31;;;;;;;4.97;1.75;;;11.90;99.90;;;;;;4953522;29;20050;-61
2024/02/23 12:49:58;;;;;;;8.77;3.05;;;11.90;99.90;;;;;;4953002;28;20059;-63
2024/02/23 12:52:25;;;;;;;7.72;2.42;;;12.00;99.90;;;;;;4955222;29;20166;-63
2024/02/23 12:54:52;;;;;;;6.43;2.05;;;12.10;99.90;;;;;;4949843;28;20539;-63
2024/02/23 12:57:19;;;;;;;12.57;3.40;;;12.00;99.90;;;;;;4951317;28;20047;-63